Terminal Aerodrome Forecast
Issued by NWS

Home | Current Version | Previous Version | Text Only | Print | Product List | Glossary On
Versions: 1 2 3 4 5 6 7 8 9 10 11 12 13 14 15 16 17 18 19 20 21 22 23 24 25 26 27 28 29 30 31
000
FTUS46 KEKA 202330
TAFCEC
TAF
KCEC 202330Z 2100/2124 15007KT 6SM -SHRA SCT025 OVC070
      TEMPO 2100/2103 5SM -TSRA BR BKN025CB OVC035
     FM210600 15009KT 4SM BR FEW007 SCT015 BKN025
     FM211800 16010KT P6SM SKC=

USA.gov is the U.S. government's official web portal to all federal, state and local government web resources and services.